sensor_id;sensor_type;location;lat;lon;timestamp;P1;durP1;ratioP1;P2;durP2;ratioP2
75634;SDS011;64227;48.724;9.104;2023-02-01T00:01:30;4.97;;;3.07;;
75634;SDS011;64227;48.724;9.104;2023-02-01T00:03:55;3.80;;;2.45;;
75634;SDS011;64227;48.724;9.104;2023-02-01T00:06:20;3.93;;;2.80;;
75634;SDS011;64227;48.724;9.104;2023-02-01T00:08:46;3.58;;;2.70;;
75634;SDS011;64227;48.724;9.104;2023-02-01T00:11:11;3.43;;;2.40;;
75634;SDS011;64227;48.724;9.104;2023-02-01T00:13:38;5.20;;;3.08;;
75634;SDS011;64227;48.724;9.104;2023-02-01T00:16:06;6.10;;;3.13;;
75634;SDS011;64227;48.724;9.104;2023-02-01T00:18:32;3.83;;;2.70;;
75634;SDS011;64227;48.724;9.104;2023-02-01T00:20:58;5.00;;;2.85;;
75634;SDS011;64227;48.724;9.104;2023-02-01T00:23:23;3.25;;;2.20;;
75634;SDS011;64227;48.724;9.104;2023-02-01T00:25:49;4.25;;;2.53;;
75634;SDS011;64227;48.724;9.104;2023-02-01T00:28:14;4.35;;;2.67;;
75634;SDS011;64227;48.724;9.104;2023-02-01T00:30:39;3.40;;;2.57;;
75634;SDS011;64227;48.724;9.104;2023-02-01T00:33:04;3.57;;;2.17;;
75634;SDS011;64227;48.724;9.104;2023-02-01T00:35:30;4.38;;;2.42;;
75634;SDS011;64227;48.724;9.104;2023-02-01T00:37:55;4.32;;;2.28;;
75634;SDS011;64227;48.724;9.104;2023-02-01T00:40:23;3.65;;;2.45;;
75634;SDS011;64227;48.724;9.104;2023-02-01T00:42:48;3.60;;;2.58;;
75634;SDS011;64227;48.724;9.104;2023-02-01T00:45:14;5.22;;;2.33;;
75634;SDS011;64227;48.724;9.104;2023-02-01T00:47:39;2.75;;;1.83;;
75634;SDS011;64227;48.724;9.104;2023-02-01T00:50:04;5.50;;;2.30;;
75634;SDS011;64227;48.724;9.104;2023-02-01T00:52:30;3.13;;;1.90;;
75634;SDS011;64227;48.724;9.104;2023-02-01T00:54:55;4.30;;;2.10;;
75634;SDS011;64227;48.724;9.104;2023-02-01T00:57:20;2.65;;;1.77;;
75634;SDS011;64227;48.724;9.104;2023-02-01T00:59:46;2.83;;;2.35;;
75634;SDS011;64227;48.724;9.104;2023-02-01T01:02:11;2.27;;;1.90;;
75634;SDS011;64227;48.724;9.104;2023-02-01T01:04:39;2.28;;;1.80;;
75634;SDS011;64227;48.724;9.104;2023-02-01T01:07:04;3.20;;;1.92;;
75634;SDS011;64227;48.724;9.104;2023-02-01T01:09:30;2.53;;;1.80;;
75634;SDS011;64227;48.724;9.104;2023-02-01T01:11:55;3.17;;;1.80;;
75634;SDS011;64227;48.724;9.104;2023-02-01T01:14:20;3.03;;;1.83;;
75634;SDS011;64227;48.724;9.104;2023-02-01T01:16:46;2.25;;;1.50;;
75634;SDS011;64227;48.724;9.104;2023-02-01T01:19:11;2.47;;;1.60;;
75634;SDS011;64227;48.724;9.104;2023-02-01T01:21:36;2.33;;;1.83;;
75634;SDS011;64227;48.724;9.104;2023-02-01T01:24:01;2.22;;;1.60;;
75634;SDS011;64227;48.724;9.104;2023-02-01T01:26:27;1.70;;;1.45;;
75634;SDS011;64227;48.724;9.104;2023-02-01T01:28:54;1.80;;;1.27;;
75634;SDS011;64227;48.724;9.104;2023-02-01T01:31:23;2.95;;;1.85;;
75634;SDS011;64227;48.724;9.104;2023-02-01T01:33:52;2.53;;;1.60;;
75634;SDS011;64227;48.724;9.104;2023-02-01T01:36:19;3.33;;;1.65;;
75634;SDS011;64227;48.724;9.104;2023-02-01T01:38:44;1.88;;;1.65;;
75634;SDS011;64227;48.724;9.104;2023-02-01T01:41:12;2.72;;;1.88;;
75634;SDS011;64227;48.724;9.104;2023-02-01T01:43:56;2.35;;;1.92;;
75634;SDS011;64227;48.724;9.104;2023-02-01T01:46:24;1.92;;;1.38;;
75634;SDS011;64227;48.724;9.104;2023-02-01T01:48:53;1.83;;;1.25;;
75634;SDS011;64227;48.724;9.104;2023-02-01T01:51:29;4.03;;;1.70;;
75634;SDS011;64227;48.724;9.104;2023-02-01T01:53:58;2.00;;;1.58;;
75634;SDS011;64227;48.724;9.104;2023-02-01T01:56:26;2.22;;;1.55;;
75634;SDS011;64227;48.724;9.104;2023-02-01T01:58:52;2.72;;;1.50;;
75634;SDS011;64227;48.724;9.104;2023-02-01T02:01:18;2.15;;;1.60;;
75634;SDS011;64227;48.724;9.104;2023-02-01T02:03:44;3.67;;;2.20;;
75634;SDS011;64227;48.724;9.104;2023-02-01T02:06:15;2.55;;;1.88;;
75634;SDS011;64227;48.724;9.104;2023-02-01T02:08:45;2.53;;;1.90;;
75634;SDS011;64227;48.724;9.104;2023-02-01T02:11:11;2.15;;;1.70;;
75634;SDS011;64227;48.724;9.104;2023-02-01T02:13:41;3.28;;;2.20;;
75634;SDS011;64227;48.724;9.104;2023-02-01T02:16:14;3.20;;;1.95;;
75634;SDS011;64227;48.724;9.104;2023-02-01T02:18:47;2.45;;;1.63;;
75634;SDS011;64227;48.724;9.104;2023-02-01T02:26:51;2.60;;;1.52;;
75634;SDS011;64227;48.724;9.104;2023-02-01T02:29:26;5.00;;;1.73;;
75634;SDS011;64227;48.724;9.104;2023-02-01T02:40:07;1.80;;;1.63;;
75634;SDS011;64227;48.724;9.104;2023-02-01T02:43:05;2.30;;;1.65;;
75634;SDS011;64227;48.724;9.104;2023-02-01T02:45:55;2.75;;;1.70;;
75634;SDS011;64227;48.724;9.104;2023-02-01T02:48:46;2.15;;;1.67;;
75634;SDS011;64227;48.724;9.104;2023-02-01T02:51:16;2.85;;;2.13;;
75634;SDS011;64227;48.724;9.104;2023-02-01T02:54:07;2.72;;;1.40;;
75634;SDS011;64227;48.724;9.104;2023-02-01T02:56:55;1.60;;;1.50;;
75634;SDS011;64227;48.724;9.104;2023-02-01T02:59:40;2.53;;;1.70;;
75634;SDS011;64227;48.724;9.104;2023-02-01T03:02:27;2.63;;;1.95;;
75634;SDS011;64227;48.724;9.104;2023-02-01T03:05:11;1.98;;;1.80;;
75634;SDS011;64227;48.724;9.104;2023-02-01T03:13:50;2.47;;;1.75;;
75634;SDS011;64227;48.724;9.104;2023-02-01T03:16:24;3.65;;;1.77;;
75634;SDS011;64227;48.724;9.104;2023-02-01T03:18:59;3.28;;;2.00;;
75634;SDS011;64227;48.724;9.104;2023-02-01T03:22:18;2.78;;;1.75;;
75634;SDS011;64227;48.724;9.104;2023-02-01T03:24:39;1.92;;;1.40;;
75634;SDS011;64227;48.724;9.104;2023-02-01T03:29:48;1.75;;;1.58;;
75634;SDS011;64227;48.724;9.104;2023-02-01T03:32:19;2.78;;;1.67;;
75634;SDS011;64227;48.724;9.104;2023-02-01T03:34:45;2.58;;;1.95;;
75634;SDS011;64227;48.724;9.104;2023-02-01T03:37:12;2.65;;;2.20;;
75634;SDS011;64227;48.724;9.104;2023-02-01T03:39:46;4.43;;;2.10;;
75634;SDS011;64227;48.724;9.104;2023-02-01T03:42:21;3.13;;;2.42;;
75634;SDS011;64227;48.724;9.104;2023-02-01T03:44:54;2.97;;;1.92;;
75634;SDS011;64227;48.724;9.104;2023-02-01T03:47:25;2.38;;;1.73;;
75634;SDS011;64227;48.724;9.104;2023-02-01T03:49:55;2.92;;;1.95;;
75634;SDS011;64227;48.724;9.104;2023-02-01T03:52:26;3.25;;;2.28;;
75634;SDS011;64227;48.724;9.104;2023-02-01T03:54:54;3.42;;;2.50;;
75634;SDS011;64227;48.724;9.104;2023-02-01T03:57:22;2.63;;;1.80;;
75634;SDS011;64227;48.724;9.104;2023-02-01T03:59:51;2.58;;;2.00;;
75634;SDS011;64227;48.724;9.104;2023-02-01T04:02:16;2.42;;;1.88;;
75634;SDS011;64227;48.724;9.104;2023-02-01T04:04:41;2.38;;;1.67;;
75634;SDS011;64227;48.724;9.104;2023-02-01T04:07:07;2.63;;;2.07;;
75634;SDS011;64227;48.724;9.104;2023-02-01T04:09:32;2.35;;;1.65;;
75634;SDS011;64227;48.724;9.104;2023-02-01T04:11:57;3.42;;;1.50;;
75634;SDS011;64227;48.724;9.104;2023-02-01T04:14:23;2.83;;;1.63;;
75634;SDS011;64227;48.724;9.104;2023-02-01T04:16:48;1.70;;;1.30;;
75634;SDS011;64227;48.724;9.104;2023-02-01T04:19:13;2.95;;;1.60;;
75634;SDS011;64227;48.724;9.104;2023-02-01T04:21:39;2.37;;;1.87;;
75634;SDS011;64227;48.724;9.104;2023-02-01T04:24:04;2.83;;;1.63;;
75634;SDS011;64227;48.724;9.104;2023-02-01T04:26:30;2.53;;;1.77;;
75634;SDS011;64227;48.724;9.104;2023-02-01T04:28:55;1.93;;;1.60;;
75634;SDS011;64227;48.724;9.104;2023-02-01T04:31:20;2.45;;;1.80;;
75634;SDS011;64227;48.724;9.104;2023-02-01T04:33:52;2.60;;;1.67;;
75634;SDS011;64227;48.724;9.104;2023-02-01T04:36:18;1.60;;;1.33;;
75634;SDS011;64227;48.724;9.104;2023-02-01T04:38:47;3.38;;;1.80;;
75634;SDS011;64227;48.724;9.104;2023-02-01T04:41:13;2.72;;;1.73;;
75634;SDS011;64227;48.724;9.104;2023-02-01T04:43:39;2.97;;;2.00;;
75634;SDS011;64227;48.724;9.104;2023-02-01T04:46:04;2.72;;;1.65;;
75634;SDS011;64227;48.724;9.104;2023-02-01T04:48:29;2.97;;;1.50;;
75634;SDS011;64227;48.724;9.104;2023-02-01T04:50:55;2.75;;;1.75;;
75634;SDS011;64227;48.724;9.104;2023-02-01T04:53:20;1.60;;;1.33;;
75634;SDS011;64227;48.724;9.104;2023-02-01T04:55:47;2.50;;;1.52;;
75634;SDS011;64227;48.724;9.104;2023-02-01T04:58:13;2.53;;;1.40;;
75634;SDS011;64227;48.724;9.104;2023-02-01T05:00:38;7.97;;;1.67;;
75634;SDS011;64227;48.724;9.104;2023-02-01T05:03:03;2.42;;;1.85;;
75634;SDS011;64227;48.724;9.104;2023-02-01T05:05:29;2.25;;;1.35;;
75634;SDS011;64227;48.724;9.104;2023-02-01T05:07:54;1.70;;;1.48;;
75634;SDS011;64227;48.724;9.104;2023-02-01T05:10:20;1.50;;;1.38;;
75634;SDS011;64227;48.724;9.104;2023-02-01T05:12:45;2.70;;;1.60;;
75634;SDS011;64227;48.724;9.104;2023-02-01T05:15:31;2.95;;;2.03;;
75634;SDS011;64227;48.724;9.104;2023-02-01T05:17:57;2.28;;;1.65;;
75634;SDS011;64227;48.724;9.104;2023-02-01T05:20:22;1.67;;;1.52;;
75634;SDS011;64227;48.724;9.104;2023-02-01T05:22:48;2.40;;;1.67;;
75634;SDS011;64227;48.724;9.104;2023-02-01T05:25:13;1.27;;;1.17;;
75634;SDS011;64227;48.724;9.104;2023-02-01T05:27:38;1.52;;;1.20;;
75634;SDS011;64227;48.724;9.104;2023-02-01T05:30:04;1.77;;;1.30;;
75634;SDS011;64227;48.724;9.104;2023-02-01T05:32:30;1.52;;;1.38;;
75634;SDS011;64227;48.724;9.104;2023-02-01T05:34:55;1.98;;;1.55;;
75634;SDS011;64227;48.724;9.104;2023-02-01T05:37:21;1.40;;;1.20;;
75634;SDS011;64227;48.724;9.104;2023-02-01T05:39:47;1.50;;;1.20;;
75634;SDS011;64227;48.724;9.104;2023-02-01T05:42:12;1.95;;;1.10;;
75634;SDS011;64227;48.724;9.104;2023-02-01T05:44:37;2.30;;;1.63;;
75634;SDS011;64227;48.724;9.104;2023-02-01T05:47:03;1.65;;;1.40;;
75634;SDS011;64227;48.724;9.104;2023-02-01T05:49:28;1.98;;;1.55;;
75634;SDS011;64227;48.724;9.104;2023-02-01T05:51:53;2.13;;;1.55;;
75634;SDS011;64227;48.724;9.104;2023-02-01T05:54:19;3.93;;;1.40;;
75634;SDS011;64227;48.724;9.104;2023-02-01T05:56:44;1.43;;;1.20;;
75634;SDS011;64227;48.724;9.104;2023-02-01T05:59:09;3.67;;;1.67;;
75634;SDS011;64227;48.724;9.104;2023-02-01T06:01:35;4.30;;;1.63;;
75634;SDS011;64227;48.724;9.104;2023-02-01T06:04:00;3.58;;;1.83;;
75634;SDS011;64227;48.724;9.104;2023-02-01T06:06:26;2.23;;;1.33;;
75634;SDS011;64227;48.724;9.104;2023-02-01T06:08:51;1.98;;;1.17;;
75634;SDS011;64227;48.724;9.104;2023-02-01T06:11:16;2.00;;;1.27;;
75634;SDS011;64227;48.724;9.104;2023-02-01T06:13:42;3.67;;;1.90;;
75634;SDS011;64227;48.724;9.104;2023-02-01T06:16:07;2.30;;;1.50;;
75634;SDS011;64227;48.724;9.104;2023-02-01T06:18:33;2.50;;;1.33;;
75634;SDS011;64227;48.724;9.104;2023-02-01T06:20:59;2.15;;;1.50;;
75634;SDS011;64227;48.724;9.104;2023-02-01T06:23:25;2.97;;;1.42;;
75634;SDS011;64227;48.724;9.104;2023-02-01T06:25:51;2.25;;;1.55;;
75634;SDS011;64227;48.724;9.104;2023-02-01T06:28:30;2.05;;;1.50;;
75634;SDS011;64227;48.724;9.104;2023-02-01T06:30:56;2.20;;;1.63;;
75634;SDS011;64227;48.724;9.104;2023-02-01T06:33:23;1.77;;;1.35;;
75634;SDS011;64227;48.724;9.104;2023-02-01T06:35:57;4.43;;;1.60;;
75634;SDS011;64227;48.724;9.104;2023-02-01T06:38:23;3.40;;;1.40;;
75634;SDS011;64227;48.724;9.104;2023-02-01T06:40:53;2.30;;;1.88;;
75634;SDS011;64227;48.724;9.104;2023-02-01T06:43:19;2.00;;;1.48;;
75634;SDS011;64227;48.724;9.104;2023-02-01T06:45:45;1.73;;;1.10;;
75634;SDS011;64227;48.724;9.104;2023-02-01T06:48:10;2.53;;;1.77;;
75634;SDS011;64227;48.724;9.104;2023-02-01T06:50:36;2.05;;;1.33;;
75634;SDS011;64227;48.724;9.104;2023-02-01T06:53:01;2.50;;;1.30;;
75634;SDS011;64227;48.724;9.104;2023-02-01T06:55:26;2.30;;;1.55;;
75634;SDS011;64227;48.724;9.104;2023-02-01T06:57:55;3.87;;;1.30;;
75634;SDS011;64227;48.724;9.104;2023-02-01T07:00:23;1.30;;;1.20;;
75634;SDS011;64227;48.724;9.104;2023-02-01T07:02:49;2.05;;;1.27;;
75634;SDS011;64227;48.724;9.104;2023-02-01T07:05:15;2.08;;;1.50;;
75634;SDS011;64227;48.724;9.104;2023-02-01T07:07:40;2.13;;;1.40;;
75634;SDS011;64227;48.724;9.104;2023-02-01T07:10:05;1.73;;;1.23;;
75634;SDS011;64227;48.724;9.104;2023-02-01T07:12:31;1.55;;;1.33;;
75634;SDS011;64227;48.724;9.104;2023-02-01T07:14:56;2.00;;;1.00;;
75634;SDS011;64227;48.724;9.104;2023-02-01T07:17:22;1.20;;;1.10;;
75634;SDS011;64227;48.724;9.104;2023-02-01T07:19:47;2.75;;;1.40;;
75634;SDS011;64227;48.724;9.104;2023-02-01T07:22:13;1.20;;;1.10;;
75634;SDS011;64227;48.724;9.104;2023-02-01T07:24:41;2.47;;;1.30;;
75634;SDS011;64227;48.724;9.104;2023-02-01T07:27:06;2.20;;;1.23;;
75634;SDS011;64227;48.724;9.104;2023-02-01T07:29:32;3.53;;;1.50;;
75634;SDS011;64227;48.724;9.104;2023-02-01T07:31:57;2.97;;;1.30;;
75634;SDS011;64227;48.724;9.104;2023-02-01T07:34:23;2.13;;;1.45;;
75634;SDS011;64227;48.724;9.104;2023-02-01T07:36:48;2.58;;;1.38;;
75634;SDS011;64227;48.724;9.104;2023-02-01T07:39:13;2.77;;;1.60;;
75634;SDS011;64227;48.724;9.104;2023-02-01T07:41:38;1.83;;;1.50;;
75634;SDS011;64227;48.724;9.104;2023-02-01T07:44:04;1.20;;;0.80;;
75634;SDS011;64227;48.724;9.104;2023-02-01T07:46:30;3.55;;;1.55;;
75634;SDS011;64227;48.724;9.104;2023-02-01T07:48:55;1.83;;;1.27;;
75634;SDS011;64227;48.724;9.104;2023-02-01T07:51:20;2.97;;;1.75;;
75634;SDS011;64227;48.724;9.104;2023-02-01T07:53:46;2.17;;;1.27;;
75634;SDS011;64227;48.724;9.104;2023-02-01T07:56:12;2.30;;;1.17;;
75634;SDS011;64227;48.724;9.104;2023-02-01T07:58:42;1.85;;;1.40;;
75634;SDS011;64227;48.724;9.104;2023-02-01T08:01:15;1.77;;;1.02;;
75634;SDS011;64227;48.724;9.104;2023-02-01T08:03:54;1.80;;;1.48;;
75634;SDS011;64227;48.724;9.104;2023-02-01T08:06:21;1.20;;;1.10;;
75634;SDS011;64227;48.724;9.104;2023-02-01T08:08:48;2.13;;;1.20;;
75634;SDS011;64227;48.724;9.104;2023-02-01T08:11:14;1.23;;;1.05;;
75634;SDS011;64227;48.724;9.104;2023-02-01T08:13:39;1.42;;;1.23;;
75634;SDS011;64227;48.724;9.104;2023-02-01T08:16:06;1.80;;;1.10;;
75634;SDS011;64227;48.724;9.104;2023-02-01T08:18:33;1.38;;;1.27;;
75634;SDS011;64227;48.724;9.104;2023-02-01T08:21:02;1.88;;;1.30;;
75634;SDS011;64227;48.724;9.104;2023-02-01T08:23:33;2.38;;;1.40;;
75634;SDS011;64227;48.724;9.104;2023-02-01T08:26:09;2.70;;;1.30;;
75634;SDS011;64227;48.724;9.104;2023-02-01T08:28:36;2.70;;;1.65;;
75634;SDS011;64227;48.724;9.104;2023-02-01T08:31:09;3.42;;;1.83;;
75634;SDS011;64227;48.724;9.104;2023-02-01T08:33:36;2.10;;;1.35;;
75634;SDS011;64227;48.724;9.104;2023-02-01T08:36:04;2.03;;;1.52;;
75634;SDS011;64227;48.724;9.104;2023-02-01T08:38:30;4.43;;;2.03;;
75634;SDS011;64227;48.724;9.104;2023-02-01T08:40:55;2.80;;;1.73;;
75634;SDS011;64227;48.724;9.104;2023-02-01T08:43:21;2.70;;;1.80;;
75634;SDS011;64227;48.724;9.104;2023-02-01T08:45:46;3.75;;;1.70;;
75634;SDS011;64227;48.724;9.104;2023-02-01T08:48:11;1.92;;;1.60;;
75634;SDS011;64227;48.724;9.104;2023-02-01T08:50:37;2.67;;;1.50;;
75634;SDS011;64227;48.724;9.104;2023-02-01T08:53:02;3.53;;;1.80;;
75634;SDS011;64227;48.724;9.104;2023-02-01T08:55:27;6.38;;;1.92;;
75634;SDS011;64227;48.724;9.104;2023-02-01T08:57:53;2.28;;;1.10;;
75634;SDS011;64227;48.724;9.104;2023-02-01T09:00:18;1.98;;;1.08;;
75634;SDS011;64227;48.724;9.104;2023-02-01T09:02:44;2.53;;;1.20;;
75634;SDS011;64227;48.724;9.104;2023-02-01T09:05:10;3.60;;;1.40;;
75634;SDS011;64227;48.724;9.104;2023-02-01T09:07:35;4.38;;;1.50;;
75634;SDS011;64227;48.724;9.104;2023-02-01T09:10:01;2.03;;;1.33;;
75634;SDS011;64227;48.724;9.104;2023-02-01T09:12:28;1.10;;;1.00;;
75634;SDS011;64227;48.724;9.104;2023-02-01T09:14:57;2.95;;;1.50;;
75634;SDS011;64227;48.724;9.104;2023-02-01T09:17:24;2.63;;;1.60;;
75634;SDS011;64227;48.724;9.104;2023-02-01T09:19:52;2.92;;;1.15;;
75634;SDS011;64227;48.724;9.104;2023-02-01T09:22:18;5.05;;;1.73;;
75634;SDS011;64227;48.724;9.104;2023-02-01T09:24:43;5.45;;;1.98;;
75634;SDS011;64227;48.724;9.104;2023-02-01T09:27:09;1.30;;;1.20;;
75634;SDS011;64227;48.724;9.104;2023-02-01T09:29:34;1.73;;;1.17;;
75634;SDS011;64227;48.724;9.104;2023-02-01T09:31:59;4.23;;;1.23;;
75634;SDS011;64227;48.724;9.104;2023-02-01T09:34:24;2.17;;;1.15;;
75634;SDS011;64227;48.724;9.104;2023-02-01T09:36:50;3.60;;;2.08;;
75634;SDS011;64227;48.724;9.104;2023-02-01T09:39:15;3.92;;;1.58;;
75634;SDS011;64227;48.724;9.104;2023-02-01T09:44:28;2.90;;;1.52;;
75634;SDS011;64227;48.724;9.104;2023-02-01T09:47:01;5.97;;;1.40;;
75634;SDS011;64227;48.724;9.104;2023-02-01T09:49:33;3.05;;;1.40;;
75634;SDS011;64227;48.724;9.104;2023-02-01T09:52:02;3.45;;;1.50;;
75634;SDS011;64227;48.724;9.104;2023-02-01T09:54:39;4.13;;;1.45;;
75634;SDS011;64227;48.724;9.104;2023-02-01T09:57:07;3.80;;;1.30;;
75634;SDS011;64227;48.724;9.104;2023-02-01T09:59:42;3.63;;;1.40;;
75634;SDS011;64227;48.724;9.104;2023-02-01T10:02:14;4.53;;;1.73;;
75634;SDS011;64227;48.724;9.104;2023-02-01T10:04:42;7.30;;;1.65;;
75634;SDS011;64227;48.724;9.104;2023-02-01T10:07:26;6.07;;;1.60;;
75634;SDS011;64227;48.724;9.104;2023-02-01T10:15:47;2.85;;;1.10;;
75634;SDS011;64227;48.724;9.104;2023-02-01T10:21:25;3.75;;;1.38;;
75634;SDS011;64227;48.724;9.104;2023-02-01T10:29:26;4.97;;;1.60;;
75634;SDS011;64227;48.724;9.104;2023-02-01T10:31:56;6.22;;;1.15;;
75634;SDS011;64227;48.724;9.104;2023-02-01T10:34:25;6.80;;;1.40;;
75634;SDS011;64227;48.724;9.104;2023-02-01T10:36:53;5.93;;;1.30;;
75634;SDS011;64227;48.724;9.104;2023-02-01T10:39:20;3.13;;;1.48;;
75634;SDS011;64227;48.724;9.104;2023-02-01T10:41:46;6.53;;;1.48;;
75634;SDS011;64227;48.724;9.104;2023-02-01T10:44:16;5.40;;;1.35;;
75634;SDS011;64227;48.724;9.104;2023-02-01T10:46:43;3.30;;;0.90;;
75634;SDS011;64227;48.724;9.104;2023-02-01T10:49:12;2.50;;;1.17;;
75634;SDS011;64227;48.724;9.104;2023-02-01T10:51:45;5.35;;;1.23;;
75634;SDS011;64227;48.724;9.104;2023-02-01T10:54:20;6.60;;;1.48;;
75634;SDS011;64227;48.724;9.104;2023-02-01T10:56:48;6.15;;;1.30;;
75634;SDS011;64227;48.724;9.104;2023-02-01T10:59:15;3.00;;;1.05;;
75634;SDS011;64227;48.724;9.104;2023-02-01T11:01:46;2.55;;;1.42;;
75634;SDS011;64227;48.724;9.104;2023-02-01T11:04:15;4.97;;;1.25;;
75634;SDS011;64227;48.724;9.104;2023-02-01T11:06:44;7.55;;;1.75;;
75634;SDS011;64227;48.724;9.104;2023-02-01T11:09:18;3.38;;;1.35;;
75634;SDS011;64227;48.724;9.104;2023-02-01T11:14:16;3.22;;;1.00;;
75634;SDS011;64227;48.724;9.104;2023-02-01T11:16:47;6.13;;;1.15;;
75634;SDS011;64227;48.724;9.104;2023-02-01T11:19:15;7.80;;;1.55;;
75634;SDS011;64227;48.724;9.104;2023-02-01T11:21:41;4.80;;;1.50;;
75634;SDS011;64227;48.724;9.104;2023-02-01T11:24:11;3.70;;;1.33;;
75634;SDS011;64227;48.724;9.104;2023-02-01T11:26:45;5.10;;;1.35;;
75634;SDS011;64227;48.724;9.104;2023-02-01T11:29:11;3.55;;;1.20;;
75634;SDS011;64227;48.724;9.104;2023-02-01T11:31:38;3.70;;;1.25;;
75634;SDS011;64227;48.724;9.104;2023-02-01T11:34:06;2.13;;;1.10;;
75634;SDS011;64227;48.724;9.104;2023-02-01T11:36:33;3.78;;;1.00;;
75634;SDS011;64227;48.724;9.104;2023-02-01T11:39:43;2.90;;;0.80;;
75634;SDS011;64227;48.724;9.104;2023-02-01T11:44:42;4.07;;;1.63;;
75634;SDS011;64227;48.724;9.104;2023-02-01T11:47:21;5.28;;;1.35;;
75634;SDS011;64227;48.724;9.104;2023-02-01T11:49:49;2.35;;;1.23;;
75634;SDS011;64227;48.724;9.104;2023-02-01T11:57:59;2.70;;;0.90;;
75634;SDS011;64227;48.724;9.104;2023-02-01T12:00:55;7.07;;;1.83;;
75634;SDS011;64227;48.724;9.104;2023-02-01T12:22:55;2.42;;;0.77;;
75634;SDS011;64227;48.724;9.104;2023-02-01T12:32:00;5.25;;;1.10;;
75634;SDS011;64227;48.724;9.104;2023-02-01T12:34:48;3.88;;;0.70;;
75634;SDS011;64227;48.724;9.104;2023-02-01T12:37:27;5.07;;;0.98;;
75634;SDS011;64227;48.724;9.104;2023-02-01T12:42:23;4.78;;;1.30;;
75634;SDS011;64227;48.724;9.104;2023-02-01T12:47:55;3.20;;;1.30;;
75634;SDS011;64227;48.724;9.104;2023-02-01T12:50:25;6.78;;;1.38;;
75634;SDS011;64227;48.724;9.104;2023-02-01T12:52:54;4.28;;;1.45;;
75634;SDS011;64227;48.724;9.104;2023-02-01T12:55:35;5.78;;;1.30;;
75634;SDS011;64227;48.724;9.104;2023-02-01T12:58:06;3.78;;;1.13;;
75634;SDS011;64227;48.724;9.104;2023-02-01T13:00:39;4.22;;;1.08;;
75634;SDS011;64227;48.724;9.104;2023-02-01T13:03:25;5.03;;;1.20;;
75634;SDS011;64227;48.724;9.104;2023-02-01T13:08:41;5.22;;;1.02;;
75634;SDS011;64227;48.724;9.104;2023-02-01T13:11:30;5.68;;;0.98;;
75634;SDS011;64227;48.724;9.104;2023-02-01T13:14:13;6.63;;;1.77;;
75634;SDS011;64227;48.724;9.104;2023-02-01T13:16:44;1.88;;;1.05;;
75634;SDS011;64227;48.724;9.104;2023-02-01T13:19:30;4.55;;;0.95;;
75634;SDS011;64227;48.724;9.104;2023-02-01T13:22:12;4.50;;;1.35;;
75634;SDS011;64227;48.724;9.104;2023-02-01T13:24:42;4.72;;;1.42;;
75634;SDS011;64227;48.724;9.104;2023-02-01T13:27:13;5.40;;;1.67;;
75634;SDS011;64227;48.724;9.104;2023-02-01T13:29:50;3.42;;;1.77;;
75634;SDS011;64227;48.724;9.104;2023-02-01T13:32:30;4.90;;;1.10;;
75634;SDS011;64227;48.724;9.104;2023-02-01T13:41:13;4.63;;;1.33;;
75634;SDS011;64227;48.724;9.104;2023-02-01T13:43:48;6.20;;;1.27;;
75634;SDS011;64227;48.724;9.104;2023-02-01T13:46:15;2.58;;;0.90;;
75634;SDS011;64227;48.724;9.104;2023-02-01T13:48:49;4.47;;;1.10;;
75634;SDS011;64227;48.724;9.104;2023-02-01T13:51:18;2.42;;;1.00;;
75634;SDS011;64227;48.724;9.104;2023-02-01T13:53:57;7.30;;;1.58;;
75634;SDS011;64227;48.724;9.104;2023-02-01T13:56:23;5.88;;;2.20;;
75634;SDS011;64227;48.724;9.104;2023-02-01T13:58:49;3.80;;;1.30;;
75634;SDS011;64227;48.724;9.104;2023-02-01T14:11:38;7.35;;;2.20;;
75634;SDS011;64227;48.724;9.104;2023-02-01T14:16:40;7.13;;;1.02;;
75634;SDS011;64227;48.724;9.104;2023-02-01T14:19:17;2.75;;;0.90;;
75634;SDS011;64227;48.724;9.104;2023-02-01T14:21:52;4.80;;;1.60;;
75634;SDS011;64227;48.724;9.104;2023-02-01T14:24:32;5.75;;;1.30;;
75634;SDS011;64227;48.724;9.104;2023-02-01T14:26:59;2.65;;;0.90;;
75634;SDS011;64227;48.724;9.104;2023-02-01T14:32:17;2.83;;;1.40;;
75634;SDS011;64227;48.724;9.104;2023-02-01T14:44:47;3.42;;;1.40;;
75634;SDS011;64227;48.724;9.104;2023-02-01T14:52:22;2.90;;;1.10;;
75634;SDS011;64227;48.724;9.104;2023-02-01T14:54:54;3.40;;;1.17;;
75634;SDS011;64227;48.724;9.104;2023-02-01T14:57:20;4.88;;;1.10;;
75634;SDS011;64227;48.724;9.104;2023-02-01T14:59:49;6.85;;;1.13;;
75634;SDS011;64227;48.724;9.104;2023-02-01T15:02:23;3.28;;;1.00;;
75634;SDS011;64227;48.724;9.104;2023-02-01T15:04:54;5.13;;;1.30;;
75634;SDS011;64227;48.724;9.104;2023-02-01T15:07:20;4.15;;;1.55;;
75634;SDS011;64227;48.724;9.104;2023-02-01T15:09:46;5.65;;;1.23;;
75634;SDS011;64227;48.724;9.104;2023-02-01T15:17:50;10.48;;;1.42;;
75634;SDS011;64227;48.724;9.104;2023-02-01T15:20:18;7.00;;;1.50;;
75634;SDS011;64227;48.724;9.104;2023-02-01T15:23:00;8.40;;;2.92;;
75634;SDS011;64227;48.724;9.104;2023-02-01T15:25:30;11.52;;;4.78;;
75634;SDS011;64227;48.724;9.104;2023-02-01T15:27:58;6.10;;;2.83;;
75634;SDS011;64227;48.724;9.104;2023-02-01T15:30:24;7.38;;;1.92;;
75634;SDS011;64227;48.724;9.104;2023-02-01T15:33:03;6.82;;;2.90;;
75634;SDS011;64227;48.724;9.104;2023-02-01T15:35:39;6.10;;;1.83;;
75634;SDS011;64227;48.724;9.104;2023-02-01T15:43:27;9.13;;;2.58;;
75634;SDS011;64227;48.724;9.104;2023-02-01T15:45:58;5.50;;;1.67;;
75634;SDS011;64227;48.724;9.104;2023-02-01T15:48:25;4.82;;;1.40;;
75634;SDS011;64227;48.724;9.104;2023-02-01T15:50:52;3.72;;;1.17;;
75634;SDS011;64227;48.724;9.104;2023-02-01T15:53:19;4.53;;;1.17;;
75634;SDS011;64227;48.724;9.104;2023-02-01T15:55:46;3.95;;;1.17;;
75634;SDS011;64227;48.724;9.104;2023-02-01T15:58:17;10.32;;;4.10;;
75634;SDS011;64227;48.724;9.104;2023-02-01T16:00:45;36.85;;;12.88;;
75634;SDS011;64227;48.724;9.104;2023-02-01T16:03:24;32.53;;;10.35;;
75634;SDS011;64227;48.724;9.104;2023-02-01T16:05:58;7.78;;;2.85;;
75634;SDS011;64227;48.724;9.104;2023-02-01T16:08:26;6.63;;;2.83;;
75634;SDS011;64227;48.724;9.104;2023-02-01T16:10:53;6.68;;;2.47;;
75634;SDS011;64227;48.724;9.104;2023-02-01T16:13:24;5.72;;;1.52;;
75634;SDS011;64227;48.724;9.104;2023-02-01T16:15:49;6.73;;;2.47;;
75634;SDS011;64227;48.724;9.104;2023-02-01T16:18:15;6.18;;;1.55;;
75634;SDS011;64227;48.724;9.104;2023-02-01T16:20:41;8.38;;;3.67;;
75634;SDS011;64227;48.724;9.104;2023-02-01T16:23:07;7.28;;;3.25;;
75634;SDS011;64227;48.724;9.104;2023-02-01T16:25:33;6.25;;;1.90;;
75634;SDS011;64227;48.724;9.104;2023-02-01T16:27:59;7.45;;;1.30;;
75634;SDS011;64227;48.724;9.104;2023-02-01T16:30:24;8.25;;;1.45;;
75634;SDS011;64227;48.724;9.104;2023-02-01T16:32:57;6.93;;;1.50;;
75634;SDS011;64227;48.724;9.104;2023-02-01T16:35:28;4.07;;;1.15;;
75634;SDS011;64227;48.724;9.104;2023-02-01T16:37:56;1.33;;;0.95;;
75634;SDS011;64227;48.724;9.104;2023-02-01T16:40:21;4.85;;;1.08;;
75634;SDS011;64227;48.724;9.104;2023-02-01T16:42:47;4.50;;;1.10;;
75634;SDS011;64227;48.724;9.104;2023-02-01T16:45:15;2.42;;;1.00;;
75634;SDS011;64227;48.724;9.104;2023-02-01T16:47:42;2.97;;;1.33;;
75634;SDS011;64227;48.724;9.104;2023-02-01T16:50:15;4.10;;;0.90;;
75634;SDS011;64227;48.724;9.104;2023-02-01T16:52:41;5.95;;;2.53;;
75634;SDS011;64227;48.724;9.104;2023-02-01T16:55:16;8.55;;;4.03;;
75634;SDS011;64227;48.724;9.104;2023-02-01T16:57:43;15.02;;;6.22;;
75634;SDS011;64227;48.724;9.104;2023-02-01T17:00:09;13.02;;;2.70;;
75634;SDS011;64227;48.724;9.104;2023-02-01T17:02:36;5.38;;;1.80;;
75634;SDS011;64227;48.724;9.104;2023-02-01T17:05:02;7.65;;;2.55;;
75634;SDS011;64227;48.724;9.104;2023-02-01T17:07:27;7.75;;;2.20;;
75634;SDS011;64227;48.724;9.104;2023-02-01T17:09:52;5.47;;;1.23;;
75634;SDS011;64227;48.724;9.104;2023-02-01T17:12:25;4.43;;;1.27;;